KO6TH-15 Weather Reports


Display with metric or nautical units.
time (UTC)temp
F
wind
direction
speed
MPH
gust
MPH
rain 1hr
in
rain 24hr
in
rain mn
in
humidity
%
barometer
mb
20220121101433 34 0 0.0 0.0 0.00 0.00 0.00 99
20220121094433 35 0 0.0 0.0 0.00 0.00 0.00 99
20220121091433 35 0 0.0 0.0 0.00 0.00 0.00 99
20220121084433 36 0 0.0 0.0 0.00 0.00 0.00 99
20220121081433 36 0 0.0 0.0 0.00 0.00 0.00 98
20220121074433 36 0 0.0 0.0 0.00 0.00 0.00 98
20220121071433 37 0 0.0 0.0 0.00 0.00 0.00 98
20220121064433 37 0 0.0 0.0 0.00 0.00 0.00 97
20220121061433 38 0 0.0 0.0 0.00 0.00 0.00 97
20220121054433 38 0 0.0 0.0 0.00 0.00 0.00 96
20220121051433 39 0 0.0 0.0 0.00 0.00 0.00 96
20220121044433 40 0 0.0 0.0 0.00 0.00 0.00 95
20220121041433 41 0 0.0 0.0 0.00 0.00 0.00 94
20220121034433 42 0 0.0 0.0 0.00 0.00 0.00 93
20220121031433 44 0 0.0 0.0 0.00 0.00 0.00 90
20220121024433 46 0 0.0 0.0 0.00 0.00 0.00 88
20220121021433 49 0 0.0 0.0 0.00 0.00 0.00 85
20220121014433 51 0 0.0 0.0 0.00 0.00 0.00 81
20220121011433 56 0 0.0 0.0 0.00 0.00 0.00 73
20220121004433 60 0 0.0 0.0 0.00 0.00 0.00 65
20220121001433 65 0 0.0 0.0 0.00 0.00 0.00 56
20220120234433 65 360 3.0 0.0 0.00 0.00 0.00 57
20220120232833 64 360 3.0 0.0 0.00 0.00 0.00 58
20220120231233 65 360 3.0 0.0 0.00 0.00 0.00 57
20220120230433 65 360 1.0 0.0 0.00 0.00 0.00 57
20220120225633 66 360 4.0 0.0 0.00 0.00 0.00 55
20220120225233 66 360 3.0 0.0 0.00 0.00 0.00 55
20220120224833 66 360 2.0 0.0 0.00 0.00 0.00 55
20220120224633 65 360 3.0 0.0 0.00 0.00 0.00 56
20220120224433 64 360 2.0 0.0 0.00 0.00 0.00 57
20220120224333 64 360 3.0 0.0 0.00 0.00 0.00 57
20220120222610 65 360 2.0 0.0 0.00 0.00 0.00 56
20220120215610 64 360 4.0 0.0 0.00 0.00 0.00 57
20220120212610 63 360 1.0 0.0 0.00 0.00 0.00 57
20220120205610 62 360 2.0 0.0 0.00 0.00 0.00 59
20220120202610 61 360 4.0 0.0 0.00 0.00 0.00 62
20220120201010 61 0 0.0 0.0 0.00 0.00 0.00 61
20220120195410 61 360 5.0 0.0 0.00 0.00 0.00 61
20220120194610 59 0 0.0 0.0 0.00 0.00 0.00 64
20220120193810 60 360 3.0 0.0 0.00 0.00 0.00 62
20220120193410 59 360 1.0 0.0 0.00 0.00 0.00 63
20220120193010 59 360 2.0 0.0 0.00 0.00 0.00 64
20220120192810 58 360 2.0 0.0 0.00 0.00 0.00 66
20220120192610 58 0 0.0 0.0 0.00 0.00 0.00 66
20220120192510 58 360 3.0 0.0 0.00 0.00 0.00 66
20220120181017 52 360 2.0 0.0 0.00 0.00 0.00 69
20220120174017 50 0 0.0 0.0 0.00 0.00 0.00 78
20220120171017 44 360 3.0 0.0 0.00 0.00 0.00 96
20220120164017 39 360 2.0 0.0 0.00 0.00 0.00 99
20220120161017 34 0 0.0 0.0 0.00 0.00 0.00 99
20220120154018 32 0 0.0 0.0 0.00 0.00 0.00 99
20220120151017 31 0 0.0 0.0 0.00 0.00 0.00 99
20220120144017 31 0 0.0 0.0 0.00 0.00 0.00 99
20220120141017 31 0 0.0 0.0 0.00 0.00 0.00 99
20220120134017 31 0 0.0 0.0 0.00 0.00 0.00 99
20220120131017 31 0 0.0 0.0 0.00 0.00 0.00 99
20220120124017 31 0 0.0 0.0 0.00 0.00 0.00 99
20220120121017 32 0 0.0 0.0 0.00 0.00 0.00 99
20220120114017 32 0 0.0 0.0 0.00 0.00 0.00 99
20220120111017 32 0 0.0 0.0 0.00 0.00 0.00 99